createdAt,value
2022-11-17T06:28:56.823Z,7.47
2022-11-17T06:34:01.922Z,7.45
2022-11-17T06:39:04.137Z,7.53
2022-11-17T06:44:06.224Z,7.49
2022-11-17T06:49:08.660Z,7.56
2022-11-17T06:54:12.379Z,7.48
2022-11-17T06:59:16.055Z,7.37
2022-11-17T07:04:18.206Z,7.44
2022-11-17T07:09:20.277Z,7.53
2022-11-17T07:14:22.363Z,7.58
2022-11-17T07:19:24.392Z,7.66
2022-11-17T07:24:26.446Z,7.79
2022-11-17T07:29:30.499Z,8.24
2022-11-17T07:34:32.572Z,8.36
2022-11-17T07:39:34.616Z,8.45
2022-11-17T07:44:36.693Z,8.52
2022-11-17T07:49:38.735Z,8.52
2022-11-17T07:54:40.814Z,8.61
2022-11-17T07:59:42.869Z,8.71
2022-11-17T08:04:44.910Z,8.67
2022-11-17T08:09:46.960Z,8.86
2022-11-17T08:14:49.937Z,9.11
2022-11-17T08:19:52.061Z,9.18
2022-11-17T08:24:54.186Z,9.27
2022-11-17T08:29:56.247Z,9.45
2022-11-17T08:34:58.261Z,9.52
2022-11-17T08:40:00.365Z,9.68
2022-11-17T08:45:02.398Z,10.05
2022-11-17T08:50:06.215Z,10.41
2022-11-17T08:55:08.710Z,10.78
2022-11-17T09:00:11.574Z,10.85
2022-11-17T09:05:13.718Z,10.72
2022-11-17T09:10:15.789Z,10.57
2022-11-17T09:15:17.961Z,11.11
2022-11-17T09:48:45.742Z,11.53
2022-11-17T09:54:01.683Z,12.43
2022-11-17T09:59:06.584Z,15.38
2022-11-17T10:04:14.251Z,14.83
2022-11-17T10:09:41.524Z,14.25
2022-11-17T10:14:43.765Z,15.28
2022-11-17T10:19:45.807Z,16.57
2022-11-17T10:24:55.331Z,15.25
2022-11-17T10:30:19.068Z,21.59
2022-11-17T10:35:26.955Z,29.70
2022-11-17T10:40:52.954Z,31.02
2022-11-17T10:46:07.426Z,29.33
2022-11-17T10:51:19.489Z,28.67
2022-11-17T10:56:21.957Z,27.27
2022-11-17T11:01:38.064Z,27.98
2022-11-17T11:06:40.151Z,26.11
2022-11-17T11:11:48.991Z,25.89
2022-11-17T11:16:51.295Z,23.66
2022-11-17T11:22:31.138Z,25.16
2022-11-17T11:27:59.948Z,24.19
2022-11-17T11:33:17.321Z,21.01
2022-11-17T11:38:50.079Z,18.17
2022-11-17T11:44:16.711Z,17.28
2022-11-17T11:49:53.037Z,15.10
2022-11-17T11:55:14.491Z,14.27
2022-11-17T12:00:17.829Z,14.02
2022-11-17T12:05:28.790Z,13.59
2022-11-17T12:10:34.335Z,13.01
2022-11-17T12:15:37.153Z,12.74
2022-11-17T12:20:39.114Z,12.50
2022-11-17T12:25:54.730Z,14.66
2022-11-17T12:31:24.347Z,14.28
2022-11-17T12:36:31.157Z,13.51
2022-11-17T12:41:48.538Z,13.07
2022-11-17T12:47:00.859Z,13.17
2022-11-17T12:52:11.744Z,13.72
2022-11-17T12:57:20.937Z,13.97
2022-11-17T13:02:32.609Z,13.50
2022-11-17T13:07:34.722Z,13.25
2022-11-17T13:12:37.291Z,13.05
2022-11-17T13:17:42.492Z,12.79
2022-11-17T13:23:01.989Z,12.75
2022-11-17T13:28:05.407Z,12.51
2022-11-17T13:33:12.388Z,12.28
2022-11-17T13:38:22.499Z,12.26
2022-11-17T13:43:26.314Z,12.23
2022-11-17T13:48:37.080Z,11.83
2022-11-17T13:53:50.292Z,11.49
2022-11-17T13:58:53.263Z,11.51
2022-11-17T14:04:19.495Z,11.38
2022-11-17T14:09:23.927Z,11.15
2022-11-17T14:14:36.359Z,10.97
2022-11-17T14:19:38.656Z,10.81
2022-11-17T14:24:40.984Z,10.66
2022-11-17T14:29:43.026Z,10.58
2022-11-17T14:34:45.028Z,10.43
2022-11-17T14:39:47.039Z,10.46
2022-11-17T14:44:49.223Z,10.45
2022-11-17T14:49:51.359Z,10.40
2022-11-17T14:54:53.429Z,10.38
2022-11-17T14:59:55.451Z,10.30
2022-11-17T15:04:59.856Z,10.25
2022-11-17T15:10:03.582Z,10.18
2022-11-17T15:15:06.402Z,10.17
2022-11-17T15:20:09.701Z,10.11
2022-11-17T15:25:12.229Z,10.14
2022-11-17T15:30:14.542Z,10.12
2022-11-17T15:35:16.579Z,10.03
2022-11-17T15:40:19.710Z,9.92
2022-11-17T15:45:21.858Z,9.86
2022-11-17T15:50:23.930Z,9.80
2022-11-17T15:55:25.980Z,9.82
2022-11-17T16:00:28.025Z,9.85
2022-11-17T16:05:30.071Z,9.86
2022-11-17T16:10:32.125Z,9.85
2022-11-17T16:15:34.121Z,9.77
2022-11-17T16:20:36.298Z,9.78
2022-11-17T16:25:42.245Z,9.85
2022-11-17T16:30:44.647Z,9.84
2022-11-17T16:35:46.750Z,9.86
2022-11-17T16:40:48.865Z,9.81
2022-11-17T16:45:50.924Z,9.83
2022-11-17T16:50:52.984Z,9.76
2022-11-17T16:55:54.988Z,9.76
2022-11-17T17:00:57.668Z,9.76
2022-11-17T17:06:03.909Z,9.69
2022-11-17T17:11:15.911Z,9.74
2022-11-17T17:16:19.648Z,9.78
2022-11-17T17:21:23.463Z,9.82
2022-11-17T17:26:27.601Z,9.71
2022-11-17T17:31:32.742Z,9.79
2022-11-17T17:36:35.347Z,9.77
2022-11-17T17:41:41.032Z,9.78
2022-11-17T17:46:43.305Z,9.79
2022-11-17T17:51:45.607Z,9.90
2022-11-17T17:56:48.235Z,9.80
2022-11-17T18:01:50.339Z,9.93
2022-11-17T18:06:52.492Z,9.98
2022-11-17T18:11:54.522Z,10.00
2022-11-17T18:16:56.637Z,9.96
2022-11-17T18:21:58.763Z,10.00
2022-11-17T18:27:00.816Z,10.09
2022-11-17T18:32:02.980Z,10.02
2022-11-17T18:37:05.133Z,9.98
2022-11-17T18:42:07.337Z,10.12
2022-11-17T18:47:09.383Z,10.12
2022-11-17T18:52:11.507Z,10.02
2022-11-17T18:57:13.600Z,10.02
2022-11-17T19:02:15.831Z,9.82
2022-11-17T19:07:17.885Z,9.88
2022-11-17T19:12:20.066Z,9.87
2022-11-17T19:17:22.135Z,9.77
2022-11-17T19:22:24.218Z,9.69
2022-11-17T19:27:26.657Z,9.66
2022-11-17T19:32:28.772Z,9.72
2022-11-17T19:37:30.856Z,9.58
2022-11-17T19:42:32.992Z,9.64
2022-11-17T19:47:35.811Z,9.60
2022-11-17T19:52:37.833Z,9.61
2022-11-17T19:57:39.887Z,9.65
2022-11-17T20:02:41.926Z,9.57
2022-11-17T20:07:44.047Z,9.63
2022-11-17T20:12:46.488Z,9.57
2022-11-17T20:17:48.527Z,9.61
2022-11-17T20:22:50.722Z,9.69
2022-11-17T20:27:52.779Z,9.65
2022-11-17T20:32:54.767Z,9.58
2022-11-17T20:37:56.819Z,9.53
2022-11-17T20:42:59.155Z,9.65
2022-11-17T20:48:01.191Z,9.54
2022-11-17T20:53:03.211Z,9.51
2022-11-17T20:58:05.235Z,9.52
2022-11-17T21:03:08.315Z,9.50
2022-11-17T21:08:10.506Z,9.52
2022-11-17T21:13:12.524Z,9.52
2022-11-17T21:18:24.584Z,9.51
